Bahias De Huatulco, Mexico

7:17 PM CDT on May 24, 2015 (GMT -0500)
Bahias De Huatulco | | Change Station
CLOSE
Current Station
Airport
Location: Bahias de Huatulco,
Elevation: 469 ft
Nearby Weather Stations

Elev 469 ft 15.78 °N, 96.26 °W | Updated 32 minutes ago

Mostly Cloudy
Mostly Cloudy
86 °F
Feels Like 97 °F
N
9
Wind Variable Wind from SW

Today
High -- | Low -- °F
--% Chance of Precip.
Yesterday
High -- | Low -- °F
Precip. -- in
6:53 AM 7:50 PM
Waxing Crescent, 43% visible
Pressure 29.86 in
Visibility 7.0 miles
Clouds Scattered Clouds 6000 ft
Mostly Cloudy 20000 ft
Heat Index 97 °F
Dew Point 77 °F
Humidity 74%
Rainfall 0.00 in
Snow Depth Not available.
UV 0 out of 12
Pollen Not available.
Air Quality Not available.
Flu Activity Not available.
METAR MMBT 242345Z 23008KT 7SM SCT060 BKN200 30/25 A2986 RMK 8/401 HZY

More Conditions Fewer Conditions

Pressure 29.86 in
Visibility 7.0 miles
Clouds Scattered Clouds 6000 ft
Mostly Cloudy 20000 ft
Heat Index 97 °F
Dew Point 77 °F
Humidity 74%
Rainfall 0.00 in
Snow Depth Not available.
UV 0 out of 12
Pollen Not available.
Air Quality Not available.
Flu Activity Not available.
METAR MMBT 242345Z 23008KT 7SM SCT060 BKN200 30/25 A2986 RMK 8/401 HZY

More Conditions Fewer Conditions

10-Day Weather Forecast

Almanac

Astronomy

May. 24, 2015 Rise Set
Actual Time
Civil Twilight
Nautical Twilight
Astronomical Twilight
Moon
Length of Visible Light
Length of Day
Tomorrow will be .
, % of the Moon is Illuminated

Today's Extremes

Country Highs Country Lows

Community

WunderPhotos

Upload Photos

1,823,900 photos uploaded!

WunderBlogs® & News

Nearby

Air Quality

  Air Quality AQ Index Pollutant
Not available.

Snow Depth

Station Depth Elevation

Earthquake Activity

City Distance Mag. Time & Date
Minimum magnitude displayed is 2.5.

Coastal Water Temperatures

Place Temperature

Stations

Nearby Weather Stations

Station Location Temp. Windchill Dew Point Humidity Wind Precip. Elev Updated Type